Faust — SLKQ — position and weather

sailwx.info

Track history (hours):
 
Tides and Currents Weather Stations Pressure Air Temp Water Temp Dewpoint Dewpoint Depression Visibility Wind Speed Wind Dir Waves Ship Positions

Faust

Last reported at 2016-Jun-29 04:33 UTC. Time now 2016-Jun-29 05:44 UTC.
Position S 29°52' E 031°02'.

Length 227.8 m; beam 32.3 m; draft 9.5 m.

Type: Cargo ship. MMSI: 266260000.

Date/timePositionNaut miles runAvg speedWind from/ knotsBaromVisibWave heightAir tempDewpointWater temp
2016-Jun-29 04:33S 29°52' E 031°02'0 0.0
2016-Jun-29 03:33S 29°52' E 031°02'0 0.0
2016-Jun-29 02:33S 29°52' E 031°02'2 1.6
2016-Jun-29 01:33S 29°52' E 031°04'5 5.0
2016-Jun-29 00:33S 29°48' E 031°07'1 0.9
2016-Jun-28 23:33S 29°49' E 031°08'5 5.4
2016-Jun-28 22:33S 29°47' E 031°14'1 0.7
2016-Jun-28 21:33S 29°47' E 031°15'0 0.4
2016-Jun-28 20:33S 29°48' E 031°15'1 0.8
2016-Jun-28 19:33S 29°48' E 031°15'0 0.4
2016-Jun-28 18:33S 29°49' E 031°16'2 2.0
2016-Jun-28 17:33S 29°47' E 031°14'1 0.9
2016-Jun-28 16:33S 29°48' E 031°13'1 0.6
2016-Jun-28 15:33S 29°48' E 031°13'1 1.3
2016-Jun-28 14:33S 29°47' E 031°14'1 0.7
2016-Jun-28 13:33S 29°48' E 031°14'1 1.2
2016-Jun-28 12:33S 29°48' E 031°12'1 1.1
2016-Jun-28 11:33S 29°48' E 031°11'1 1.0
2016-Jun-28 10:33S 29°47' E 031°11'1 0.9
2016-Jun-28 09:33S 29°48' E 031°11'1 0.7
2016-Jun-28 08:33S 29°49' E 031°10'4 3.9
2016-Jun-28 07:33S 29°47' E 031°14'4 4.0
2016-Jun-28 06:33S 29°50' E 031°17'11 5.4
2016-Jun-28 04:33S 29°57' E 031°08'1414.2
2016-Jun-28 03:33S 30°08' E 030°58'1918.1
2016-Jun-28 02:31S 30°25' E 030°48'  
2016-Jun-23 07:09S 33°58' E 017°58'2213.6
2016-Jun-23 05:33S 33°40' E 017°42'1413.8
2016-Jun-23 04:31S 33°29' E 017°32'  
Track history (hours):
 
Tides and Currents Weather Stations Pressure Air Temp Water Temp Dewpoint Dewpoint Depression Visibility Wind Speed Wind Dir Waves Ship Positions

Faust

Last reported at 2016-Jun-29 04:33 UTC. Time now 2016-Jun-29 05:44 UTC.
Position S 29°52' E 031°02'.

Length 227.8 m; beam 32.3 m; draft 9.5 m.

Type: Cargo ship. MMSI: 266260000.

Date/timePositionNaut miles runAvg speedWind from/ knotsBaromVisibWave heightAir tempDewpointWater temp
2016-Jun-29 04:33S 29°52' E 031°02'0 0.0
2016-Jun-29 03:33S 29°52' E 031°02'0 0.0
2016-Jun-29 02:33S 29°52' E 031°02'2 1.6
2016-Jun-29 01:33S 29°52' E 031°04'5 5.0
2016-Jun-29 00:33S 29°48' E 031°07'1 0.9
2016-Jun-28 23:33S 29°49' E 031°08'5 5.4
2016-Jun-28 22:33S 29°47' E 031°14'1 0.7
2016-Jun-28 21:33S 29°47' E 031°15'0 0.4
2016-Jun-28 20:33S 29°48' E 031°15'1 0.8
2016-Jun-28 19:33S 29°48' E 031°15'0 0.4
2016-Jun-28 18:33S 29°49' E 031°16'2 2.0
2016-Jun-28 17:33S 29°47' E 031°14'1 0.9
2016-Jun-28 16:33S 29°48' E 031°13'1 0.6
2016-Jun-28 15:33S 29°48' E 031°13'1 1.3
2016-Jun-28 14:33S 29°47' E 031°14'1 0.7
2016-Jun-28 13:33S 29°48' E 031°14'1 1.2
2016-Jun-28 12:33S 29°48' E 031°12'1 1.1
2016-Jun-28 11:33S 29°48' E 031°11'1 1.0
2016-Jun-28 10:33S 29°47' E 031°11'1 0.9
2016-Jun-28 09:33S 29°48' E 031°11'1 0.7
2016-Jun-28 08:33S 29°49' E 031°10'4 3.9
2016-Jun-28 07:33S 29°47' E 031°14'4 4.0
2016-Jun-28 06:33S 29°50' E 031°17'11 5.4
2016-Jun-28 04:33S 29°57' E 031°08'1414.2
2016-Jun-28 03:33S 30°08' E 030°58'1918.1
2016-Jun-28 02:31S 30°25' E 030°48'  
2016-Jun-23 07:09S 33°58' E 017°58'2213.6
2016-Jun-23 05:33S 33°40' E 017°42'1413.8
2016-Jun-23 04:31S 33°29' E 017°32'  

Dump ship's entire track history